Delta, Utah Weather observations

Data are for observation ending at time listed.
 Day   Time    Ave.   Ave.  Ave.  Vector   Max.   Stn.    Total    Solar   Ave.  
  of    of     Air    Rel.  Wind   Wind    Wind   Baro.  Precip.   Rad.    Soil  
Year   Day     Temp.  Hum.  Speed  Dir.    Gust   Pres.                    Temp. 
2015   (MST)    F      %     mph   deg.    mph     mb.     in.     W/m2     F   
------------------------------------------------------------------------------
  29   10:40   40.2    76    1.3   359      2.8   869.7    0.00     186    99999.0
  29   10:50   40.7    75    2.3    50      4.2   869.6    0.00     176    99999.0
  29   11:00   40.9    75    2.0    56      4.2   869.5    0.00     210    99999.0
  29   11:10   42.1    73    1.0   100      3.4   869.4    0.00     220    99999.0
  29   11:20   42.4    72    2.1   142      3.1   869.4    0.00     243    99999.0
  29   11:30   42.8    71    2.2   101      3.5   869.3    0.00     238    99999.0
  29   11:40   43.6    70    1.6    64      4.1   869.3    0.00     255    99999.0
  29   11:50   44.1    69    1.6    55      3.7   869.1    0.00     236    99999.0
  29   12:00   44.3    68    1.7    10      4.2   869.0    0.00     217    99999.0
  29   12:10   44.7    67    2.0   104      3.8   868.8    0.00     234    99999.0
  29   12:20   45.2    66    2.2    98      4.5   868.7    0.00     248    99999.0
  29   12:30   45.9    64    2.5    26      5.8   868.6    0.00     238    99999.0
  29   12:40   46.0    63    3.0    13      5.6   868.3    0.00     240    99999.0
  29   12:50   46.1    63    3.0    58      5.4   868.2    0.00     244    99999.0
  29   13:00   46.1    62    3.0    52      6.7   868.0    0.00     253    99999.0
  29   13:10   46.9    61    3.1    50      6.0   867.9    0.00     286    99999.0
  29   13:20   47.3    61    2.3    85      5.3   867.7    0.00     270    99999.0
  29   13:30   47.8    60    1.9    88      4.5   867.6    0.00     277    99999.0
  29   13:40   48.1    59    1.5    84      4.5   867.4    0.00     287    99999.0
  29   13:50   48.3    59    2.1   128      4.5   867.2    0.00     312    99999.0
  29   14:00   48.6    58    1.9   109      3.9   867.1    0.00     286    99999.0
  29   14:10   48.7    57    1.2   197      3.9   867.0    0.00     282    99999.0
  29   14:20   48.8    57    2.3   360      4.5   866.9    0.00     259    99999.0
  29   14:30   48.7    57    1.8   278      3.3   866.8    0.00     223    99999.0
  29   14:40   49.4    56    2.0   332      3.9   866.7    0.00     194    99999.0
  29   14:50   49.5    54    1.3   355      4.5   866.6    0.00     178    99999.0
  29   15:00   49.4    54    2.6   309      5.4   866.5    0.00     164    99999.0
  29   15:10   49.3    54    2.1   356      4.8   866.6    0.00     151    99999.0
  29   15:20   49.7    53    0.9   310      2.9   866.5    0.00     138    99999.0
  29   15:30   49.9    53    1.5    13      3.1   866.5    0.00     127    99999.0
  29   15:40   49.5    54    1.3    50      3.0   866.5    0.00     113    99999.0
  29   15:50   49.6    54    0.8   312      2.9   866.5    0.00      92    99999.0
  29   16:00   49.5    54    1.2    44      2.6   866.6    0.00      79    99999.0
  29   16:10   49.3    55    1.1    94      2.7   866.5    0.00      71    99999.0
  29   16:20   49.3    55    1.6   267      2.9   866.6    0.00      54    99999.0
  29   16:30   48.9    56    2.1   237      3.7   866.7    0.00      54    99999.0
  29   16:40   48.7    56    1.9   225      3.1   866.7    0.00      42    99999.0
  29   16:50   48.6    56    2.0   242      3.4   866.6    0.00      31    99999.0
  29   17:00   48.6    55    1.8   209      3.1   866.6    0.00      27    99999.0
  29   17:10   48.3    58    2.5   186      4.0   866.6    0.00      21    99999.0
  29   17:20   48.0    60    2.3   174      3.6   866.6    0.00      15    99999.0
  29   17:30   47.7    61    2.2   152      3.6   866.6    0.00      10    99999.0
  29   17:40   47.4    61    1.7   169      2.8   866.7    0.00       5    99999.0
  29   17:50   47.3    62    1.8   167      2.8   866.7    0.00       2    99999.0
  29   18:00   47.2    62    1.9   173      3.4   866.7    0.00       0    99999.0
  29   18:10   47.0    63    1.9   178      2.9   866.7    0.00       0    99999.0
  29   18:20   46.7    65    1.0   215      2.5   866.7    0.00       0    99999.0
  29   18:30   46.2    66    1.7   309      4.3   866.7    0.00       0    99999.0
  29   18:40   45.3    67    2.8   329      5.8   866.8    0.00       0    99999.0
  29   18:50   44.8    70    1.9   326      3.4   866.8    0.00       0    99999.0
  29   19:00   44.5    72    1.6   312      2.7   866.8    0.00       0    99999.0
  29   19:10   44.1    74    1.6   324      3.4   866.8    0.00       0    99999.0
  29   19:20   43.7    75    1.7   328      4.1   866.9    0.00       0    99999.0
  29   19:30   43.2    77    2.9   347      4.5   866.8    0.00       0    99999.0
  29   19:40   42.7    80    2.9   355      5.5   866.8    0.00       0    99999.0
  29   19:50   42.3    82    2.6   355      5.9   866.9    0.00       0    99999.0
  29   20:00   42.0    83    2.5   352      4.6   867.0    0.00       0    99999.0
  29   20:10   41.7    85    2.0   344      4.2   867.0    0.00       0    99999.0
  29   20:20   41.3    85    3.1   340      5.3   867.1    0.00       0    99999.0
  29   20:30   41.0    86    3.1   338      5.7   867.1    0.01       0    99999.0
  29   20:40   40.7    87    3.3   346      5.9   867.1    0.00       0    99999.0
  29   20:50   40.5    88    2.3   348      5.6   867.2    0.00       0    99999.0
  29   21:00   40.4    88    2.7   352      4.9   867.3    0.00       0    99999.0
  29   21:10   40.2    89    3.3   355      6.0   867.2    0.01       0    99999.0
  29   21:20   40.0    89    3.6   354      6.5   867.1    0.00       0    99999.0
  29   21:30   39.8    90    3.1   349      6.1   867.1    0.01       0    99999.0
  29   21:40   39.7    90    3.5   348      7.2   867.0    0.00       0    99999.0
  29   21:50   39.6    91    3.1   355      6.1   867.0    0.00       0    99999.0
  29   22:00   39.4    91    3.6   349      6.3   866.9    0.00       0    99999.0
  29   22:10   39.4    91    4.0   347      6.9   866.8    0.01       0    99999.0
  29   22:20   39.3    92    3.3   350      6.0   866.8    0.00       0    99999.0
  29   22:30   39.4    92    2.6   353      4.6   866.7    0.00       0    99999.0
  29   22:40   39.4    92    2.4   349      5.9   866.5    0.00       0    99999.0
  29   22:50   39.3    92    2.5   343      4.7   866.4    0.00       0    99999.0
  29   23:00   39.0    92    3.1   340      5.3   866.3    0.00       0    99999.0
  29   23:10   38.9    93    2.9   340      4.7   866.2    0.00       0    99999.0
  29   23:20   38.8    93    2.0   349      4.0   866.0    0.00       0    99999.0
  29   23:30   38.8    93    2.9     6      4.8   865.9    0.00       0    99999.0
  29   23:40   38.8    93    2.7   349      5.0   865.8    0.00       0    99999.0
  29   23:50   38.6    93    2.8   337      5.4   865.7    0.00       0    99999.0
  30    0:00   38.4    93    2.3   328      4.0   865.7    0.00       0    99999.0
  30    0:10   38.5    93    2.1   322      3.9   865.6    0.00       0    99999.0
  30    0:20   38.3    93    2.3   316      4.5   865.5    0.00       0    99999.0
  30    0:30   38.2    93    1.6   296      2.8   865.5    0.00       0    99999.0
  30    0:40   38.1    93    2.1   297      3.6   865.6    0.00       0    99999.0
  30    0:50   38.0    93    1.9   297      3.3   865.6    0.00       0    99999.0
  30    1:00   37.9    93    1.8   298      3.4   865.5    0.00       0    99999.0
  30    1:10   37.8    93    1.7   296      3.3   865.5    0.00       0    99999.0
  30    1:20   37.7    93    1.7   291      3.1   865.4    0.00       0    99999.0
  30    1:30   37.6    93    1.1   286      3.1   865.5    0.00       0    99999.0
  30    1:40   37.6    93    1.6   276      3.0   865.5    0.00       0    99999.0
  30    1:50   37.6    93    1.7   278      2.8   865.5    0.00       0    99999.0
  30    2:00   37.6    93    0.8   294      2.4   865.4    0.00       0    99999.0
  30    2:10   37.5    93    0.7   297      2.2   865.4    0.00       0    99999.0
  30    2:20   37.5    93    0.7   276      2.1   865.4    0.00       0    99999.0
  30    2:30   37.6    93    0.3   276      1.8   865.3    0.00       0    99999.0
  30    2:40   37.7    93    0.3    25      1.5   865.3    0.00       0    99999.0
  30    2:50   37.7    93    0.0     0      0.0   865.2    0.00       0    99999.0
  30    3:00   37.8    93    0.0     0      0.0   865.2    0.00       0    99999.0
  30    3:10   37.9    93    0.0     0      0.0   865.1    0.00       0    99999.0
  30    3:20   38.0    93    0.1   339      0.7   864.9    0.00       0    99999.0
  30    3:30   38.1    93    0.0     0      0.0   864.9    0.00       0    99999.0
  30    3:40   38.0    93    0.0     0      0.0   864.8    0.01       0    99999.0
  30    3:50   38.0    93    0.3   305      0.9   864.7    0.00       0    99999.0
  30    4:00   38.0    93    0.7   305      1.0   864.5    0.00       0    99999.0
  30    4:10   37.9    93    0.7   339      2.1   864.4    0.00       0    99999.0
  30    4:20   37.8    93    1.6   346      2.9   864.2    0.00       0    99999.0
  30    4:30   37.7    93    2.2   337      3.9   864.0    0.00       0    99999.0
  30    4:40   37.6    93    2.4   338      3.9   863.8    0.00       0    99999.0
  30    4:50   37.6    93    2.6   338      5.1   863.7    0.00       0    99999.0
  30    5:00   37.5    93    2.3   344      4.0   863.5    0.00       0    99999.0
  30    5:10   37.5    93    1.7   352      3.2   863.4    0.01       0    99999.0
  30    5:20   37.5    93    2.0   346      4.2   863.3    0.00       0    99999.0
  30    5:30   37.4    93    2.4   348      4.6   863.3    0.00       0    99999.0
  30    5:40   37.4    93    1.9   356      4.3   863.2    0.00       0    99999.0
  30    5:50   37.4    94    2.1   353      3.7   863.1    0.00       0    99999.0
  30    6:00   37.4    94    1.6   356      4.2   862.9    0.00       0    99999.0
  30    6:10   37.3    94    2.4   345      4.8   862.8    0.00       0    99999.0
  30    6:20   37.3    94    1.7   349      3.9   862.8    0.00       0    99999.0
  30    6:30   37.3    94    1.7   344      3.1   862.8    0.00       0    99999.0
  30    6:40   37.4    94    2.5   339      4.5   862.7    0.00       0    99999.0
  30    6:50   37.3    94    2.6   336      4.8   862.7    0.00       0    99999.0
  30    7:00   37.3    94    3.3   335      5.1   862.5    0.00       0    99999.0
  30    7:10   37.2    94    3.7   345      6.2   862.2    0.00       0    99999.0
  30    7:20   37.2    94    3.6   339      5.9   862.2    0.00       0    99999.0
  30    7:30   37.3    94    3.7   337      6.0   862.3    0.00       0    99999.0
  30    7:40   37.3    94    4.0   339      6.6   862.2    0.00       0    99999.0
  30    7:50   37.2    94    3.5   328      5.9   862.3    0.00       0    99999.0
  30    8:00   37.1    94    4.2   335      9.8   862.1    0.00       3    99999.0
  30    8:10   37.1    94    4.5   330      9.0   862.0    0.00       6    99999.0
  30    8:20   37.2    94    4.9   335      9.2   861.8    0.00       9    99999.0
  30    8:30   37.3    94    5.6   338     10.2   861.6    0.00      12    99999.0
  30    8:40   37.4    94    5.4   338     10.4   861.6    0.00      14    99999.0
  30    8:50   37.5    93    6.0   342     11.8   861.6    0.00      19    99999.0
  30    9:00   37.6    93    4.9   338      9.3   861.5    0.00      27    99999.0
  30    9:10   37.8    93    4.8   341      9.1   861.5    0.00      36    99999.0
  30    9:20   38.1    93    4.8   340      8.8   861.5    0.00      56    99999.0
  30    9:30   38.5    93    4.7   342     10.4   861.5    0.00      69    99999.0
  30    9:40   38.8    92    3.8   342      9.9   861.5    0.00      80    99999.0
  30    9:50   39.2    92    4.4   359      8.8   861.7    0.00      87    99999.0
  30   10:00   39.5    91    4.4   359      8.3   861.7    0.00      82    99999.0
  30   10:10   39.7    91    5.1   349     10.7   861.7    0.00      79    99999.0
  30   10:20   39.9    91    3.8   341      8.6   861.6    0.00      81    99999.0
  30   10:30   40.3    90    4.3   346      8.3   861.6    0.00     104    99999.0

Return to Delta, Utah graphs page.


Western Regional Climate Center,wrcc@dri.edu